RYR399Y EKCH-EPKK
Flight info
| Callsign | RYR399Y |
|---|---|
| Flight time | 1h 13m |
| Altitude | 35000 |
| Route | SIMEG Z493 XELOL DCT ADVAB L623 UWLER |
| Aircraft | B738/M-SDE2E3FGHIRWXY/LB1 |
Departure
| Time | 2026-04-23 17:44 |
|---|---|
| Airport | Copenhagen Kastrup Airport (EKCH) |
Arrival
| Time | 2026-04-23 18:58 |
|---|---|
| Airport | Kraków John Paul II International Airport (EPKK) |
| Time | Latitude | Longitude | Altitude | Speed | Heading |
|---|---|---|---|---|---|
| 2026-04-23 17:04 | 55.62523 | 12.65760 | 25 ft | 0 kts | 359° |
| 2026-04-23 17:32 | 55.62500 | 12.65761 | 25 ft | 4 kts | 354° |
| 2026-04-23 17:32 | 55.62474 | 12.65769 | 25 ft | 4 kts | 342° |
| 2026-04-23 17:33 | 55.62452 | 12.65789 | 25 ft | 4 kts | 304° |
| 2026-04-23 17:33 | 55.62447 | 12.65810 | 25 ft | 0 kts | 269° |
| 2026-04-23 17:38 | 55.62446 | 12.65733 | 25 ft | 10 kts | 269° |
| 2026-04-23 17:38 | 55.62445 | 12.65613 | 25 ft | 10 kts | 269° |
| 2026-04-23 17:38 | 55.62443 | 12.65475 | 25 ft | 10 kts | 269° |
| 2026-04-23 17:39 | 55.62442 | 12.65356 | 25 ft | 11 kts | 269° |
| 2026-04-23 17:39 | 55.62426 | 12.65213 | 25 ft | 12 kts | 211° |
| 2026-04-23 17:39 | 55.62334 | 12.65202 | 25 ft | 15 kts | 179° |
| 2026-04-23 17:39 | 55.62233 | 12.65194 | 25 ft | 14 kts | 192° |
| 2026-04-23 17:40 | 55.62138 | 12.65095 | 25 ft | 20 kts | 214° |
| 2026-04-23 17:40 | 55.62021 | 12.64957 | 25 ft | 20 kts | 213° |
| 2026-04-23 17:40 | 55.61906 | 12.64825 | 25 ft | 19 kts | 209° |
| 2026-04-23 17:40 | 55.61776 | 12.64681 | 25 ft | 23 kts | 213° |
| 2026-04-23 17:41 | 55.61650 | 12.64534 | 25 ft | 22 kts | 213° |
| 2026-04-23 17:41 | 55.61397 | 12.64243 | 25 ft | 23 kts | 213° |
| 2026-04-23 17:41 | 55.61251 | 12.64076 | 25 ft | 26 kts | 212° |
| 2026-04-23 17:42 | 55.60934 | 12.63710 | 25 ft | 26 kts | 213° |
| 2026-04-23 17:42 | 55.60825 | 12.63598 | 25 ft | 13 kts | 185° |
| 2026-04-23 17:42 | 55.60754 | 12.63668 | 25 ft | 9 kts | 131° |
| 2026-04-23 17:43 | 55.60710 | 12.63756 | 25 ft | 10 kts | 131° |
| 2026-04-23 17:43 | 55.60678 | 12.63860 | 25 ft | 10 kts | 74° |
| 2026-04-23 17:43 | 55.60731 | 12.63950 | 25 ft | 16 kts | 40° |
| 2026-04-23 17:43 | 55.60955 | 12.64294 | 25 ft | 76 kts | 41° |
| 2026-04-23 17:44 | 55.61514 | 12.65162 | 25 ft | 136 kts | 41° |
| 2026-04-23 17:44 | 55.62317 | 12.66411 | 379 ft | 158 kts | 40° |
| 2026-04-23 17:44 | 55.64096 | 12.69083 | 1778 ft | 173 kts | 39° |
| 2026-04-23 17:45 | 55.65007 | 12.70482 | 2346 ft | 178 kts | 40° |
| 2026-04-23 17:45 | 55.66960 | 12.73960 | 2916 ft | 221 kts | 41° |
| 2026-04-23 17:45 | 55.68101 | 12.75734 | 3614 ft | 216 kts | 33° |
| 2026-04-23 17:46 | 55.70575 | 12.78907 | 4883 ft | 227 kts | 34° |
| 2026-04-23 17:46 | 55.71804 | 12.80681 | 5551 ft | 230 kts | 36° |
| 2026-04-23 17:46 | 55.72822 | 12.82914 | 6213 ft | 240 kts | 60° |
| 2026-04-23 17:47 | 55.73188 | 12.85899 | 6696 ft | 262 kts | 88° |
| 2026-04-23 17:47 | 55.72611 | 12.89101 | 7031 ft | 287 kts | 121° |
| 2026-04-23 17:47 | 55.69071 | 12.92231 | 8279 ft | 300 kts | 180° |
| 2026-04-23 17:48 | 55.66984 | 12.92047 | 8999 ft | 304 kts | 182° |
| 2026-04-23 17:48 | 55.64848 | 12.92185 | 9692 ft | 310 kts | 176° |
| 2026-04-23 17:48 | 55.62679 | 12.92456 | 10371 ft | 315 kts | 184° |
| 2026-04-23 17:48 | 55.60559 | 12.91624 | 11045 ft | 314 kts | 207° |
| 2026-04-23 17:49 | 55.58729 | 12.89565 | 11747 ft | 311 kts | 223° |
| 2026-04-23 17:49 | 55.57048 | 12.87105 | 12470 ft | 314 kts | 226° |
| 2026-04-23 17:49 | 55.55477 | 12.84423 | 13204 ft | 316 kts | 231° |
| 2026-04-23 17:49 | 55.53950 | 12.81599 | 13940 ft | 320 kts | 230° |
| 2026-04-23 17:50 | 55.52117 | 12.79256 | 14613 ft | 334 kts | 210° |
| 2026-04-23 17:50 | 55.47272 | 12.77944 | 15312 ft | 376 kts | 178° |
| 2026-04-23 17:50 | 55.44638 | 12.78465 | 15867 ft | 385 kts | 173° |
| 2026-04-23 17:51 | 55.41981 | 12.79190 | 16368 ft | 387 kts | 172° |
| 2026-04-23 17:51 | 55.39307 | 12.79824 | 16869 ft | 389 kts | 173° |
| 2026-04-23 17:51 | 55.34295 | 12.83232 | 17863 ft | 392 kts | 140° |
| 2026-04-23 17:52 | 55.32431 | 12.86704 | 18441 ft | 391 kts | 122° |
| 2026-04-23 17:52 | 55.30792 | 12.95552 | 19707 ft | 383 kts | 89° |
| 2026-04-23 17:52 | 55.30709 | 13.00226 | 20340 ft | 386 kts | 89° |
| 2026-04-23 17:53 | 55.29952 | 13.09705 | 21488 ft | 398 kts | 97° |
| 2026-04-23 17:53 | 55.29366 | 13.14482 | 22064 ft | 402 kts | 98° |
| 2026-04-23 17:53 | 55.28767 | 13.19290 | 22637 ft | 405 kts | 97° |
| 2026-04-23 17:54 | 55.28171 | 13.24139 | 23167 ft | 408 kts | 97° |
| 2026-04-23 17:54 | 55.27580 | 13.28965 | 23678 ft | 412 kts | 97° |
| 2026-04-23 17:54 | 55.26372 | 13.38856 | 24716 ft | 417 kts | 97° |
| 2026-04-23 17:55 | 55.24730 | 13.48733 | 25674 ft | 431 kts | 110° |
| 2026-04-23 17:55 | 55.23248 | 13.53342 | 26146 ft | 438 kts | 120° |
| 2026-04-23 17:55 | 55.21410 | 13.57622 | 26599 ft | 443 kts | 126° |
| 2026-04-23 17:56 | 55.19369 | 13.61738 | 27033 ft | 447 kts | 128° |
| 2026-04-23 17:56 | 55.15198 | 13.69864 | 27896 ft | 452 kts | 128° |
| 2026-04-23 17:56 | 55.13111 | 13.73992 | 28283 ft | 454 kts | 127° |
| 2026-04-23 17:57 | 55.11054 | 13.78192 | 28691 ft | 456 kts | 126° |
| 2026-04-23 17:57 | 55.08984 | 13.82407 | 29072 ft | 458 kts | 127° |
| 2026-04-23 17:57 | 55.04766 | 13.90825 | 29813 ft | 463 kts | 127° |
| 2026-04-23 17:58 | 55.02638 | 13.95039 | 30172 ft | 465 kts | 127° |
| 2026-04-23 17:58 | 55.00494 | 13.99275 | 30510 ft | 467 kts | 128° |
| 2026-04-23 17:58 | 54.98334 | 14.03531 | 30735 ft | 472 kts | 127° |
| 2026-04-23 17:58 | 54.96158 | 14.07821 | 31078 ft | 473 kts | 127° |
| 2026-04-23 17:59 | 54.93982 | 14.12084 | 31583 ft | 470 kts | 128° |
| 2026-04-23 17:59 | 54.91663 | 14.16117 | 31996 ft | 473 kts | 133° |
| 2026-04-23 17:59 | 54.89144 | 14.19802 | 32404 ft | 474 kts | 139° |
| 2026-04-23 17:59 | 54.86465 | 14.23139 | 32817 ft | 475 kts | 142° |
| 2026-04-23 18:00 | 54.83723 | 14.26360 | 33191 ft | 474 kts | 142° |
| 2026-04-23 18:00 | 54.81020 | 14.29607 | 33599 ft | 473 kts | 142° |
| 2026-04-23 18:00 | 54.78319 | 14.32864 | 33944 ft | 473 kts | 142° |
| 2026-04-23 18:00 | 54.75622 | 14.36087 | 34318 ft | 472 kts | 143° |
| 2026-04-23 18:01 | 54.72858 | 14.39199 | 34642 ft | 473 kts | 144° |
| 2026-04-23 18:01 | 54.70137 | 14.42370 | 34996 ft | 471 kts | 141° |
| 2026-04-23 18:01 | 54.67467 | 14.45675 | 35069 ft | 474 kts | 141° |
| 2026-04-23 18:02 | 54.63016 | 14.51218 | 35093 ft | 474 kts | 141° |
| 2026-04-23 18:02 | 54.56797 | 14.58932 | 35100 ft | 470 kts | 141° |
| 2026-04-23 18:03 | 54.51520 | 14.65574 | 35102 ft | 470 kts | 140° |
| 2026-04-23 18:03 | 54.46249 | 14.72112 | 35106 ft | 471 kts | 141° |
| 2026-04-23 18:04 | 54.40923 | 14.78655 | 35107 ft | 471 kts | 141° |
| 2026-04-23 18:04 | 54.35588 | 14.85188 | 35110 ft | 471 kts | 140° |
| 2026-04-23 18:05 | 54.30255 | 14.91710 | 35113 ft | 471 kts | 140° |
| 2026-04-23 18:05 | 54.24901 | 14.98215 | 35115 ft | 472 kts | 141° |
| 2026-04-23 18:06 | 54.19531 | 15.04684 | 35111 ft | 473 kts | 141° |
| 2026-04-23 18:06 | 54.14146 | 15.11149 | 35111 ft | 473 kts | 141° |
| 2026-04-23 18:07 | 54.08759 | 15.17594 | 35114 ft | 474 kts | 141° |
| 2026-04-23 18:07 | 54.03349 | 15.24045 | 35117 ft | 475 kts | 140° |
| 2026-04-23 18:08 | 53.98837 | 15.29471 | 35122 ft | 474 kts | 140° |
| 2026-04-23 18:08 | 53.92614 | 15.36980 | 35124 ft | 471 kts | 140° |
| 2026-04-23 18:09 | 53.87245 | 15.43391 | 35126 ft | 472 kts | 140° |
| 2026-04-23 18:09 | 53.81863 | 15.49780 | 35136 ft | 473 kts | 140° |
| 2026-04-23 18:10 | 53.76466 | 15.56159 | 35137 ft | 473 kts | 140° |
| 2026-04-23 18:10 | 53.71063 | 15.62522 | 35137 ft | 474 kts | 140° |
| 2026-04-23 18:11 | 53.65649 | 15.68878 | 35137 ft | 474 kts | 140° |
| 2026-04-23 18:11 | 53.60238 | 15.75209 | 35137 ft | 474 kts | 140° |
| 2026-04-23 18:12 | 53.54854 | 15.81489 | 35136 ft | 474 kts | 140° |
| 2026-04-23 18:12 | 53.49432 | 15.87793 | 35131 ft | 474 kts | 140° |
| 2026-04-23 18:13 | 53.44022 | 15.94062 | 35130 ft | 472 kts | 140° |
| 2026-04-23 18:13 | 53.38611 | 16.00314 | 35125 ft | 472 kts | 140° |
| 2026-04-23 18:14 | 53.33186 | 16.06561 | 35127 ft | 474 kts | 140° |
| 2026-04-23 18:14 | 53.27748 | 16.12804 | 35126 ft | 473 kts | 140° |
| 2026-04-23 18:15 | 53.22319 | 16.19018 | 35126 ft | 473 kts | 140° |
| 2026-04-23 18:15 | 53.16894 | 16.25208 | 35125 ft | 472 kts | 140° |
| 2026-04-23 18:16 | 53.11468 | 16.31379 | 35124 ft | 472 kts | 140° |
| 2026-04-23 18:16 | 53.06048 | 16.37524 | 35114 ft | 471 kts | 140° |
| 2026-04-23 18:17 | 52.97925 | 16.46699 | 35110 ft | 470 kts | 140° |
| 2026-04-23 18:17 | 52.92509 | 16.52793 | 35109 ft | 470 kts | 140° |
| 2026-04-23 18:18 | 52.87077 | 16.58891 | 35109 ft | 475 kts | 141° |
| 2026-04-23 18:18 | 52.81599 | 16.65013 | 35110 ft | 480 kts | 141° |
| 2026-04-23 18:19 | 52.76037 | 16.71212 | 35109 ft | 478 kts | 141° |
| 2026-04-23 18:19 | 52.70555 | 16.77304 | 35110 ft | 478 kts | 141° |
| 2026-04-23 18:20 | 52.65036 | 16.83419 | 35109 ft | 478 kts | 141° |
| 2026-04-23 18:20 | 52.59507 | 16.89533 | 35109 ft | 478 kts | 140° |
| 2026-04-23 18:21 | 52.53992 | 16.95665 | 35109 ft | 478 kts | 141° |
| 2026-04-23 18:21 | 52.48461 | 17.01723 | 35110 ft | 479 kts | 141° |
| 2026-04-23 18:22 | 52.42907 | 17.07779 | 35110 ft | 479 kts | 141° |
| 2026-04-23 18:22 | 52.37352 | 17.13819 | 35109 ft | 480 kts | 141° |
| 2026-04-23 18:23 | 52.29951 | 17.21851 | 35107 ft | 480 kts | 141° |
| 2026-04-23 18:24 | 52.20712 | 17.31895 | 35102 ft | 479 kts | 140° |
| 2026-04-23 18:25 | 52.13264 | 17.39920 | 35098 ft | 480 kts | 141° |
| 2026-04-23 18:25 | 52.07672 | 17.45899 | 35095 ft | 480 kts | 141° |
| 2026-04-23 18:26 | 52.02092 | 17.51852 | 35093 ft | 480 kts | 141° |
| 2026-04-23 18:26 | 51.96509 | 17.57809 | 35090 ft | 479 kts | 140° |
| 2026-04-23 18:27 | 51.90939 | 17.63731 | 35088 ft | 479 kts | 141° |
| 2026-04-23 18:27 | 51.85360 | 17.69641 | 35086 ft | 479 kts | 141° |
| 2026-04-23 18:28 | 51.79769 | 17.75529 | 35083 ft | 479 kts | 141° |
| 2026-04-23 18:28 | 51.74180 | 17.81391 | 35082 ft | 479 kts | 141° |
| 2026-04-23 18:29 | 51.68617 | 17.87208 | 35089 ft | 479 kts | 141° |
| 2026-04-23 18:29 | 51.63016 | 17.93050 | 35094 ft | 479 kts | 141° |
| 2026-04-23 18:30 | 51.57421 | 17.98869 | 35083 ft | 479 kts | 141° |
| 2026-04-23 18:30 | 51.51852 | 18.04739 | 35075 ft | 479 kts | 141° |
| 2026-04-23 18:31 | 51.46266 | 18.10568 | 35072 ft | 479 kts | 141° |
| 2026-04-23 18:31 | 51.40680 | 18.16360 | 35069 ft | 478 kts | 141° |
| 2026-04-23 18:32 | 51.35086 | 18.22137 | 35068 ft | 478 kts | 141° |
| 2026-04-23 18:32 | 51.29483 | 18.27904 | 35061 ft | 478 kts | 141° |
| 2026-04-23 18:33 | 51.23907 | 18.33662 | 35058 ft | 477 kts | 140° |
| 2026-04-23 18:33 | 51.18328 | 18.39397 | 35058 ft | 476 kts | 141° |
| 2026-04-23 18:34 | 51.12747 | 18.45075 | 34883 ft | 477 kts | 141° |
| 2026-04-23 18:34 | 51.09952 | 18.47911 | 34633 ft | 476 kts | 141° |
| 2026-04-23 18:34 | 51.07163 | 18.50736 | 34383 ft | 476 kts | 141° |
| 2026-04-23 18:34 | 51.04366 | 18.53566 | 34133 ft | 477 kts | 141° |
| 2026-04-23 18:35 | 51.01530 | 18.56325 | 33815 ft | 479 kts | 145° |
| 2026-04-23 18:35 | 50.98517 | 18.58641 | 33226 ft | 484 kts | 152° |
| 2026-04-23 18:35 | 50.95328 | 18.60438 | 32611 ft | 489 kts | 159° |
| 2026-04-23 18:35 | 50.92007 | 18.61705 | 31966 ft | 493 kts | 165° |
| 2026-04-23 18:36 | 50.88624 | 18.62629 | 31308 ft | 495 kts | 167° |
| 2026-04-23 18:36 | 50.85219 | 18.63523 | 30631 ft | 496 kts | 167° |
| 2026-04-23 18:36 | 50.81825 | 18.64473 | 29987 ft | 495 kts | 167° |
| 2026-04-23 18:36 | 50.78445 | 18.65446 | 29473 ft | 492 kts | 167° |
| 2026-04-23 18:37 | 50.75082 | 18.66425 | 28966 ft | 489 kts | 167° |
| 2026-04-23 18:37 | 50.71753 | 18.67398 | 28461 ft | 485 kts | 167° |
| 2026-04-23 18:37 | 50.68439 | 18.68367 | 27957 ft | 482 kts | 167° |
| 2026-04-23 18:37 | 50.65182 | 18.69484 | 27448 ft | 475 kts | 159° |
| 2026-04-23 18:38 | 50.62221 | 18.71600 | 26953 ft | 463 kts | 143° |
| 2026-04-23 18:38 | 50.59771 | 18.74733 | 26521 ft | 446 kts | 127° |
| 2026-04-23 18:38 | 50.58002 | 18.78581 | 26224 ft | 425 kts | 112° |
| 2026-04-23 18:38 | 50.56857 | 18.82772 | 25703 ft | 411 kts | 99° |
| 2026-04-23 18:39 | 50.56338 | 18.87122 | 25124 ft | 400 kts | 87° |
| 2026-04-23 18:39 | 50.56316 | 18.91434 | 24635 ft | 391 kts | 81° |
| 2026-04-23 18:39 | 50.56428 | 18.95698 | 24065 ft | 388 kts | 81° |
| 2026-04-23 18:39 | 50.56476 | 18.99871 | 23381 ft | 385 kts | 83° |
| 2026-04-23 18:40 | 50.56483 | 19.04013 | 22875 ft | 371 kts | 83° |
| 2026-04-23 18:40 | 50.56489 | 19.08004 | 22745 ft | 359 kts | 82° |
| 2026-04-23 18:40 | 50.56494 | 19.11861 | 22655 ft | 348 kts | 82° |
| 2026-04-23 18:40 | 50.56509 | 19.15638 | 22325 ft | 344 kts | 82° |
| 2026-04-23 18:41 | 50.56513 | 19.19399 | 21947 ft | 343 kts | 82° |
| 2026-04-23 18:41 | 50.56501 | 19.23145 | 21565 ft | 342 kts | 83° |
| 2026-04-23 18:41 | 50.56482 | 19.26877 | 21182 ft | 341 kts | 83° |
| 2026-04-23 18:41 | 50.56457 | 19.30591 | 20800 ft | 340 kts | 83° |
| 2026-04-23 18:42 | 50.56429 | 19.34301 | 20417 ft | 339 kts | 83° |
| 2026-04-23 18:42 | 50.56399 | 19.37999 | 20035 ft | 337 kts | 83° |
| 2026-04-23 18:42 | 50.56368 | 19.41677 | 19654 ft | 336 kts | 83° |
| 2026-04-23 18:42 | 50.56335 | 19.45349 | 19272 ft | 335 kts | 83° |
| 2026-04-23 18:43 | 50.56303 | 19.49012 | 18893 ft | 334 kts | 83° |
| 2026-04-23 18:43 | 50.56270 | 19.52666 | 18515 ft | 333 kts | 83° |
| 2026-04-23 18:43 | 50.56237 | 19.56294 | 18142 ft | 332 kts | 83° |
| 2026-04-23 18:43 | 50.56184 | 19.59928 | 17765 ft | 333 kts | 87° |
| 2026-04-23 18:44 | 50.55609 | 19.63510 | 17384 ft | 347 kts | 107° |
| 2026-04-23 18:44 | 50.54258 | 19.66715 | 16953 ft | 359 kts | 127° |
| 2026-04-23 18:44 | 50.52264 | 19.69127 | 16594 ft | 366 kts | 147° |
| 2026-04-23 18:44 | 50.49914 | 19.70658 | 16242 ft | 367 kts | 158° |
| 2026-04-23 18:45 | 50.47472 | 19.71816 | 15874 ft | 366 kts | 160° |
| 2026-04-23 18:45 | 50.45096 | 19.73198 | 15548 ft | 362 kts | 154° |
| 2026-04-23 18:45 | 50.42854 | 19.74844 | 15419 ft | 352 kts | 150° |
| 2026-04-23 18:45 | 50.40676 | 19.76587 | 14984 ft | 352 kts | 150° |
| 2026-04-23 18:46 | 50.38505 | 19.78304 | 14641 ft | 344 kts | 150° |
| 2026-04-23 18:46 | 50.36396 | 19.79954 | 14314 ft | 335 kts | 150° |
| 2026-04-23 18:46 | 50.34327 | 19.81566 | 13997 ft | 331 kts | 151° |
| 2026-04-23 18:46 | 50.32263 | 19.83172 | 13675 ft | 331 kts | 151° |
| 2026-04-23 18:47 | 50.30219 | 19.84768 | 13353 ft | 327 kts | 150° |
| 2026-04-23 18:47 | 50.28190 | 19.86357 | 13035 ft | 325 kts | 151° |
| 2026-04-23 18:47 | 50.26164 | 19.87938 | 12717 ft | 325 kts | 151° |
| 2026-04-23 18:47 | 50.24148 | 19.89511 | 12401 ft | 324 kts | 151° |
| 2026-04-23 18:48 | 50.22192 | 19.91216 | 12162 ft | 316 kts | 140° |
| 2026-04-23 18:48 | 50.20772 | 19.93623 | 11915 ft | 290 kts | 116° |
| 2026-04-23 18:48 | 50.20091 | 19.96469 | 11411 ft | 276 kts | 92° |
| 2026-04-23 18:48 | 50.20052 | 19.99408 | 10806 ft | 269 kts | 80° |
| 2026-04-23 18:49 | 50.20211 | 20.02278 | 10190 ft | 269 kts | 77° |
| 2026-04-23 18:49 | 50.20470 | 20.05160 | 9569 ft | 268 kts | 75° |
| 2026-04-23 18:49 | 50.20864 | 20.07994 | 8992 ft | 265 kts | 71° |
| 2026-04-23 18:49 | 50.21262 | 20.10781 | 8504 ft | 261 kts | 73° |
| 2026-04-23 18:50 | 50.21510 | 20.12642 | 8229 ft | 257 kts | 73° |
| 2026-04-23 18:50 | 50.21557 | 20.16313 | 7630 ft | 263 kts | 103° |
| 2026-04-23 18:50 | 50.20666 | 20.18790 | 7192 ft | 265 kts | 132° |
| 2026-04-23 18:50 | 50.19123 | 20.20255 | 6777 ft | 259 kts | 160° |
| 2026-04-23 18:51 | 50.17398 | 20.20916 | 6424 ft | 251 kts | 169° |
| 2026-04-23 18:51 | 50.15704 | 20.20912 | 6025 ft | 239 kts | 199° |
| 2026-04-23 18:51 | 50.14427 | 20.19527 | 5768 ft | 215 kts | 235° |
| 2026-04-23 18:51 | 50.13694 | 20.17570 | 5548 ft | 205 kts | 251° |
| 2026-04-23 18:52 | 50.13207 | 20.15531 | 5307 ft | 198 kts | 256° |
| 2026-04-23 18:52 | 50.12787 | 20.13521 | 5034 ft | 192 kts | 259° |
| 2026-04-23 18:52 | 50.12436 | 20.11548 | 4779 ft | 186 kts | 262° |
| 2026-04-23 18:52 | 50.12135 | 20.09622 | 4533 ft | 180 kts | 263° |
| 2026-04-23 18:53 | 50.11858 | 20.07746 | 4291 ft | 176 kts | 263° |
| 2026-04-23 18:53 | 50.11595 | 20.05911 | 4065 ft | 172 kts | 263° |
| 2026-04-23 18:53 | 50.11340 | 20.04105 | 3843 ft | 169 kts | 264° |
| 2026-04-23 18:53 | 50.11092 | 20.02329 | 3629 ft | 167 kts | 264° |
| 2026-04-23 18:54 | 50.10846 | 20.00569 | 3405 ft | 167 kts | 263° |
| 2026-04-23 18:54 | 50.10597 | 19.98786 | 3182 ft | 169 kts | 263° |
| 2026-04-23 18:54 | 50.10351 | 19.97014 | 2957 ft | 167 kts | 263° |
| 2026-04-23 18:54 | 50.10106 | 19.95256 | 2735 ft | 165 kts | 263° |
| 2026-04-23 18:55 | 50.09863 | 19.93505 | 2515 ft | 165 kts | 263° |
| 2026-04-23 18:55 | 50.09625 | 19.91795 | 2297 ft | 158 kts | 262° |
| 2026-04-23 18:55 | 50.09399 | 19.90163 | 2081 ft | 152 kts | 262° |
| 2026-04-23 18:55 | 50.09178 | 19.88574 | 1891 ft | 148 kts | 260° |
| 2026-04-23 18:56 | 50.09034 | 19.87543 | 1765 ft | 146 kts | 259° |
| 2026-04-23 18:56 | 50.08751 | 19.85511 | 1525 ft | 144 kts | 259° |
| 2026-04-23 18:56 | 50.08539 | 19.83987 | 1327 ft | 144 kts | 258° |
| 2026-04-23 18:56 | 50.08327 | 19.82458 | 1157 ft | 144 kts | 258° |
| 2026-04-23 18:57 | 50.08109 | 19.80934 | 953 ft | 145 kts | 258° |
| 2026-04-23 18:57 | 50.07898 | 19.79412 | 806 ft | 141 kts | 258° |
| 2026-04-23 18:57 | 50.07725 | 19.78140 | 799 ft | 89 kts | 258° |
| 2026-04-23 18:57 | 50.07614 | 19.77371 | 799 ft | 65 kts | 258° |
| 2026-04-23 18:58 | 50.07547 | 19.76906 | 799 ft | 27 kts | 248° |
| 2026-04-23 18:58 | 50.07406 | 19.76868 | 799 ft | 23 kts | 171° |
| 2026-04-23 18:58 | 50.07306 | 19.76958 | 799 ft | 14 kts | 80° |
| 2026-04-23 18:58 | 50.07320 | 19.77062 | 799 ft | 9 kts | 78° |
| 2026-04-23 18:59 | 50.07332 | 19.77153 | 799 ft | 8 kts | 78° |
| 2026-04-23 18:59 | 50.07344 | 19.77239 | 799 ft | 9 kts | 78° |
| 2026-04-23 18:59 | 50.07357 | 19.77332 | 799 ft | 9 kts | 78° |
| 2026-04-23 18:59 | 50.07370 | 19.77427 | 799 ft | 13 kts | 79° |
| 2026-04-23 19:00 | 50.07392 | 19.77585 | 799 ft | 15 kts | 77° |
| 2026-04-23 19:00 | 50.07413 | 19.77735 | 799 ft | 14 kts | 77° |
| 2026-04-23 19:00 | 50.07433 | 19.77876 | 799 ft | 13 kts | 79° |
| 2026-04-23 19:00 | 50.07454 | 19.78040 | 799 ft | 16 kts | 78° |
| 2026-04-23 19:01 | 50.07481 | 19.78227 | 799 ft | 22 kts | 78° |
| 2026-04-23 19:01 | 50.07516 | 19.78479 | 799 ft | 23 kts | 77° |
| 2026-04-23 19:01 | 50.07550 | 19.78717 | 799 ft | 22 kts | 77° |
| 2026-04-23 19:01 | 50.07583 | 19.78950 | 799 ft | 22 kts | 77° |
| 2026-04-23 19:02 | 50.07604 | 19.79105 | 799 ft | 21 kts | 79° |
| 2026-04-23 19:02 | 50.07645 | 19.79407 | 799 ft | 23 kts | 77° |
| 2026-04-23 19:02 | 50.07677 | 19.79638 | 799 ft | 20 kts | 78° |
| 2026-04-23 19:02 | 50.07701 | 19.79817 | 799 ft | 16 kts | 78° |
| 2026-04-23 19:03 | 50.07695 | 19.79957 | 799 ft | 13 kts | 160° |
| 2026-04-23 19:03 | 50.07636 | 19.79964 | 799 ft | 3 kts | 183° |
| 2026-04-23 19:03 | 50.07623 | 19.79962 | 799 ft | 2 kts | 185° |
| 2026-04-23 19:03 | 50.07599 | 19.79965 | 799 ft | 8 kts | 163° |
| 2026-04-23 19:04 | 50.07552 | 19.79987 | 799 ft | 2 kts | 179° |
| 2026-04-23 19:04 | 50.07511 | 19.79971 | 799 ft | 12 kts | 194° |
| 2026-04-23 19:04 | 50.07436 | 19.79960 | 799 ft | 11 kts | 175° |
| 2026-04-23 19:04 | 50.07416 | 19.79965 | 799 ft | 0 kts | 167° |
| 2026-04-23 19:05 | 50.07407 | 19.79972 | 799 ft | 6 kts | 144° |
| 2026-04-23 19:05 | 50.07397 | 19.80038 | 799 ft | 6 kts | 83° |
| 2026-04-23 19:05 | 50.07407 | 19.80097 | 799 ft | 5 kts | 75° |
| 2026-04-23 19:05 | 50.07415 | 19.80146 | 799 ft | 3 kts | 75° |
| 2026-04-23 19:06 | 50.07420 | 19.80172 | 799 ft | 2 kts | 75° |
| 2026-04-23 19:06 | 50.07428 | 19.80230 | 799 ft | 9 kts | 81° |
| 2026-04-23 19:06 | 50.07442 | 19.80341 | 799 ft | 12 kts | 65° |
| 2026-04-23 19:06 | 50.07511 | 19.80398 | 799 ft | 11 kts | 17° |
| 2026-04-23 19:07 | 50.07558 | 19.80332 | 799 ft | 11 kts | 253° |
| 2026-04-23 19:07 | 50.07530 | 19.80261 | 799 ft | 7 kts | 174° |
| 2026-04-23 19:07 | 50.07496 | 19.80272 | 799 ft | 1 kts | 167° |
| 2026-04-23 19:07 | 50.07492 | 19.80274 | 799 ft | 3 kts | 168° |
| 2026-04-23 19:08 | 50.07489 | 19.80275 | 799 ft | 0 kts | 168° |